createdAt,value
2023-03-21T00:00:31.754Z,101579.03
2023-03-21T00:03:01.309Z,101563.09
2023-03-21T00:05:29.186Z,101555.38
2023-03-21T00:07:57.047Z,101570.16
2023-03-21T00:10:39.082Z,101575.63
2023-03-21T00:13:08.598Z,101563.19
2023-03-21T00:16:03.520Z,101561.25
2023-03-21T00:18:36.660Z,101566.34
2023-03-21T00:21:37.622Z,101556.22
2023-03-21T00:23:54.382Z,101551.53
2023-03-21T00:26:23.478Z,101554.69
2023-03-21T00:28:51.768Z,101550.44
2023-03-21T00:31:21.980Z,101550.09
2023-03-21T00:33:52.169Z,101544.63
2023-03-21T00:36:19.932Z,101550.09
2023-03-21T00:38:47.672Z,101552.03
2023-03-21T00:41:26.343Z,101548.97
2023-03-21T00:44:04.108Z,101544.31
2023-03-21T00:46:43.713Z,101543.53
2023-03-21T00:49:16.276Z,101540.81
2023-03-21T00:51:44.833Z,101542.78
2023-03-21T00:54:14.098Z,101527.66
2023-03-21T00:56:42.161Z,101528.00
2023-03-21T00:59:11.007Z,101537.75
2023-03-21T01:01:38.971Z,101526.09
2023-03-21T01:04:13.501Z,101525.34
2023-03-21T01:06:44.300Z,101523.81
2023-03-21T01:09:16.501Z,101519.91
2023-03-21T01:11:45.282Z,101514.13
2023-03-21T01:14:28.823Z,101510.97
2023-03-21T01:16:56.644Z,101497.78
2023-03-21T01:19:40.591Z,101499.75
2023-03-21T01:22:17.367Z,101501.72
2023-03-21T01:24:53.144Z,101502.88
2023-03-21T01:27:24.681Z,101502.88
2023-03-21T01:29:52.623Z,101498.22
2023-03-21T01:32:20.809Z,101500.94
2023-03-21T01:34:48.629Z,101492.44
2023-03-21T01:37:19.090Z,101497.44
2023-03-21T01:39:49.576Z,101490.47
2023-03-21T01:42:17.448Z,101489.72
2023-03-21T01:44:55.530Z,101488.19
2023-03-21T01:47:23.929Z,101485.47
2023-03-21T01:50:14.881Z,101478.91
2023-03-21T01:53:17.143Z,101483.94
2023-03-21T01:55:45.074Z,101478.91
2023-03-21T01:58:23.005Z,101478.91
2023-03-21T02:01:07.824Z,101462.25
2023-03-21T02:03:51.348Z,101463.00
2023-03-21T02:06:52.555Z,101462.25
2023-03-21T02:09:43.063Z,101456.03
2023-03-21T02:12:18.701Z,101456.47
2023-03-21T02:14:49.473Z,101447.53
2023-03-21T02:17:52.246Z,101442.50
2023-03-21T02:21:08.456Z,101449.13
2023-03-21T02:24:03.208Z,101440.22
2023-03-21T02:27:04.412Z,101437.91
2023-03-21T02:29:57.789Z,101439.88
2023-03-21T02:32:38.515Z,101436.38
2023-03-21T02:35:25.941Z,101430.94
2023-03-21T02:38:00.917Z,101430.19
2023-03-21T02:40:35.522Z,101423.97
2023-03-21T02:43:22.104Z,101423.19
2023-03-21T02:45:54.717Z,101426.25
2023-03-21T02:48:35.400Z,101423.53
2023-03-21T02:51:08.978Z,101427.03
2023-03-21T02:53:42.193Z,101418.84
2023-03-21T02:56:11.464Z,101416.13
2023-03-21T02:58:45.612Z,101425.06
2023-03-21T03:01:13.837Z,101421.16
2023-03-21T03:03:48.623Z,101419.97
2023-03-21T03:06:19.782Z,101413.75
2023-03-21T03:09:02.718Z,101413.75
2023-03-21T03:11:34.297Z,101413.00
2023-03-21T03:14:39.980Z,101419.19
2023-03-21T03:17:21.113Z,101410.69
2023-03-21T03:20:07.141Z,101409.53
2023-03-21T03:22:47.944Z,101418.09
2023-03-21T03:25:35.753Z,101410.69
2023-03-21T03:28:11.095Z,101410.69
2023-03-21T03:30:46.535Z,101405.25
2023-03-21T03:33:23.520Z,101414.63
2023-03-21T03:36:04.378Z,101409.19
2023-03-21T03:38:36.657Z,101409.94
2023-03-21T03:41:11.693Z,101409.19
2023-03-21T03:43:50.841Z,101401.44
2023-03-21T03:46:25.695Z,101401.44
2023-03-21T03:48:57.851Z,101399.13
2023-03-21T03:51:30.523Z,101394.47
2023-03-21T03:54:13.942Z,101389.03
2023-03-21T03:56:44.302Z,101392.94
2023-03-21T03:59:12.149Z,101389.44
2023-03-21T04:02:17.131Z,101385.22
2023-03-21T04:04:45.107Z,101390.66
2023-03-21T04:07:12.922Z,101387.16
2023-03-21T04:09:44.874Z,101387.16
2023-03-21T04:12:18.190Z,101385.63
2023-03-21T04:15:10.662Z,101377.47
2023-03-21T04:17:42.702Z,101378.66
2023-03-21T04:20:16.709Z,101378.22
2023-03-21T04:22:52.198Z,101370.81
2023-03-21T04:25:32.557Z,101374.75
2023-03-21T04:28:03.784Z,101375.16
2023-03-21T04:31:02.287Z,101376.72
2023-03-21T04:33:38.409Z,101371.28
2023-03-21T04:36:09.365Z,101378.66
2023-03-21T04:38:39.089Z,101368.09
2023-03-21T04:41:07.631Z,101371.59
2023-03-21T04:43:37.350Z,101376.59
2023-03-21T04:46:06.346Z,101371.16
2023-03-21T04:48:34.310Z,101365.38
2023-03-21T04:51:02.255Z,101361.16
2023-03-21T04:53:30.051Z,101365.84
2023-03-21T04:55:58.567Z,101368.97
2023-03-21T04:58:26.655Z,101360.81
2023-03-21T05:00:57.356Z,101357.34
2023-03-21T05:03:25.473Z,101356.22
2023-03-21T05:05:53.400Z,101358.63
2023-03-21T05:08:21.225Z,101358.28
2023-03-21T05:10:49.060Z,101362.97
2023-03-21T05:13:16.920Z,101363.38
2023-03-21T05:15:44.818Z,101371.94
2023-03-21T05:18:14.116Z,101368.91
2023-03-21T05:20:59.341Z,101360.75
2023-03-21T05:23:31.770Z,101365.06
2023-03-21T05:25:59.865Z,101359.31
2023-03-21T05:28:40.243Z,101362.81
2023-03-21T05:31:09.242Z,101357.78
2023-03-21T05:33:38.670Z,101355.41
2023-03-21T05:36:07.177Z,101356.59
2023-03-21T05:38:35.031Z,101353.09
2023-03-21T05:41:03.029Z,101345.72
2023-03-21T05:43:32.401Z,101351.47
2023-03-21T05:46:00.261Z,101350.38
2023-03-21T05:48:30.469Z,101346.16
2023-03-21T05:51:16.755Z,101343.75
2023-03-21T05:53:44.568Z,101344.19
2023-03-21T05:56:13.861Z,101350.38
2023-03-21T05:58:47.673Z,101344.19
2023-03-21T06:01:15.848Z,101336.44
2023-03-21T06:03:50.565Z,101339.94
2023-03-21T06:06:23.959Z,101344.19
2023-03-21T06:08:56.864Z,101341.88
2023-03-21T06:11:27.771Z,101348.53
2023-03-21T06:14:14.036Z,101339.16
2023-03-21T06:16:43.118Z,101345.03
2023-03-21T06:19:11.192Z,101347.00
2023-03-21T06:21:52.906Z,101344.94
2023-03-21T06:24:20.827Z,101342.22
2023-03-21T06:26:49.167Z,101339.94
2023-03-21T06:29:17.072Z,101341.47
2023-03-21T06:31:49.374Z,101334.41
2023-03-21T06:34:17.884Z,101333.22
2023-03-21T06:36:46.684Z,101340.59
2023-03-21T06:39:17.681Z,101348.69
2023-03-21T06:41:46.522Z,101349.09
2023-03-21T06:44:14.426Z,101341.28
2023-03-21T06:46:50.531Z,101345.09
2023-03-21T06:49:20.948Z,101345.09
2023-03-21T06:51:49.138Z,101346.19
2023-03-21T06:54:21.674Z,101348.91
2023-03-21T06:56:56.891Z,101347.41
2023-03-21T06:59:29.128Z,101351.22
2023-03-21T07:02:02.544Z,101341.44
2023-03-21T07:04:31.661Z,101349.94
2023-03-21T07:06:59.655Z,101344.47
2023-03-21T07:09:29.996Z,101344.81
2023-03-21T07:12:03.314Z,101340.47
2023-03-21T07:14:43.794Z,101345.50
2023-03-21T07:17:11.709Z,101345.06
2023-03-21T07:19:39.521Z,101341.91
2023-03-21T07:22:07.327Z,101346.94
2023-03-21T07:24:36.470Z,101355.00
2023-03-21T07:27:04.307Z,101352.63
2023-03-21T07:29:32.290Z,101356.09
2023-03-21T07:32:00.147Z,101352.97
2023-03-21T07:34:33.006Z,101356.78
2023-03-21T07:37:04.028Z,101356.38
2023-03-21T07:39:33.055Z,101358.63
2023-03-21T07:42:02.797Z,101351.25
2023-03-21T07:44:37.086Z,101348.84
2023-03-21T07:47:05.077Z,101351.16
2023-03-21T07:49:33.793Z,101347.22
2023-03-21T07:52:04.299Z,101340.16
2023-03-21T07:54:32.600Z,101348.66
2023-03-21T07:57:01.813Z,101344.00
2023-03-21T07:59:29.564Z,101334.63
2023-03-21T08:01:57.368Z,101319.03
2023-03-21T08:04:26.041Z,101319.81
2023-03-21T08:06:53.866Z,101324.81
2023-03-21T08:09:22.057Z,101322.44
2023-03-21T08:11:49.855Z,101321.56
2023-03-21T08:14:19.014Z,101325.38
2023-03-21T08:16:46.840Z,101315.59
2023-03-21T08:19:14.696Z,101324.06
2023-03-21T08:21:42.589Z,101324.41
2023-03-21T08:24:10.574Z,101318.53
2023-03-21T08:26:38.679Z,101314.59
2023-03-21T08:29:06.817Z,101314.59
2023-03-21T08:31:36.257Z,101312.22
2023-03-21T08:34:04.061Z,101309.06
2023-03-21T08:36:32.228Z,101306.34
2023-03-21T08:39:05.475Z,101305.91
2023-03-21T08:41:33.401Z,101319.09
2023-03-21T08:44:01.244Z,101318.22
2023-03-21T08:46:29.053Z,101308.44
2023-03-21T08:48:58.243Z,101307.56
2023-03-21T08:51:26.024Z,101309.84
2023-03-21T08:53:53.813Z,101311.38
2023-03-21T08:56:21.608Z,101298.50
2023-03-21T08:58:49.667Z,101288.41
2023-03-21T09:01:17.510Z,101286.44
2023-03-21T09:03:45.262Z,101287.84
2023-03-21T09:06:14.594Z,101279.53
2023-03-21T09:08:43.349Z,101276.41
2023-03-21T09:11:11.743Z,101277.91
2023-03-21T09:13:39.520Z,101272.69
2023-03-21T09:16:08.038Z,101267.25
2023-03-21T09:18:49.546Z,101261.34
2023-03-21T09:21:20.314Z,101262.75
2023-03-21T09:23:48.691Z,101267.78
2023-03-21T09:26:17.145Z,101262.75
2023-03-21T09:28:46.185Z,101266.13
2023-03-21T09:31:16.649Z,101252.94
2023-03-21T09:33:44.846Z,101250.53
2023-03-21T09:36:14.204Z,101249.69
2023-03-21T09:38:45.587Z,101240.47
2023-03-21T09:41:35.260Z,101239.63
2023-03-21T09:44:15.306Z,101246.59
2023-03-21T09:46:46.774Z,101234.81
2023-03-21T09:49:20.431Z,101242.53
2023-03-21T09:51:52.827Z,101233.81
2023-03-21T09:54:25.835Z,101236.44
2023-03-21T09:56:56.368Z,101236.75
2023-03-21T09:59:36.516Z,101233.47
2023-03-21T10:02:06.213Z,101228.75
2023-03-21T10:04:34.935Z,101236.84
2023-03-21T10:07:04.487Z,101234.72
2023-03-21T10:09:34.773Z,101232.78
2023-03-21T10:12:07.398Z,101243.22
2023-03-21T10:14:39.245Z,101236.44
2023-03-21T10:17:20.058Z,101241.38
2023-03-21T10:19:50.256Z,101242.44
2023-03-21T10:22:18.045Z,101245.69
2023-03-21T10:24:47.196Z,101243.44
2023-03-21T10:27:15.387Z,101235.00
2023-03-21T10:29:45.299Z,101234.44
2023-03-21T10:32:16.747Z,101225.56
2023-03-21T10:34:48.856Z,101226.19
2023-03-21T10:37:17.748Z,101219.09
2023-03-21T10:39:50.213Z,101213.22
2023-03-21T10:42:23.774Z,101226.59
2023-03-21T10:44:54.352Z,101209.44
2023-03-21T10:47:26.010Z,101210.81
2023-03-21T10:50:07.302Z,101201.59
2023-03-21T10:52:38.391Z,101213.31
2023-03-21T10:55:18.616Z,101205.81
2023-03-21T10:57:47.363Z,101198.09
2023-03-21T11:00:21.742Z,101218.31
2023-03-21T11:02:51.941Z,101215.41
2023-03-21T11:05:24.378Z,101215.56
2023-03-21T11:08:04.146Z,101203.75
2023-03-21T11:10:35.729Z,101203.59
2023-03-21T11:13:08.344Z,101204.66
2023-03-21T11:15:43.823Z,101206.66
2023-03-21T11:18:16.567Z,101214.13
2023-03-21T11:20:50.351Z,101201.09
2023-03-21T11:23:20.624Z,101207.13
2023-03-21T11:25:51.666Z,101211.84
2023-03-21T11:28:22.381Z,101201.69
2023-03-21T11:30:54.190Z,101200.53
2023-03-21T11:33:23.923Z,101210.53
2023-03-21T11:36:03.128Z,101192.91
2023-03-21T11:38:33.926Z,101199.75
2023-03-21T11:41:04.903Z,101200.50
2023-03-21T11:43:36.108Z,101175.44
2023-03-21T11:46:09.722Z,101178.63
2023-03-21T11:48:41.269Z,101177.56
2023-03-21T11:51:18.303Z,101173.16
2023-03-21T11:53:50.351Z,101163.56
2023-03-21T11:56:26.531Z,101174.50
2023-03-21T11:59:20.072Z,101173.63
2023-03-21T12:02:01.280Z,101176.19
2023-03-21T12:04:42.399Z,101185.31
2023-03-21T12:07:26.775Z,101181.34
2023-03-21T12:10:03.760Z,101172.56
2023-03-21T12:12:39.665Z,101181.06
2023-03-21T12:15:18.820Z,101176.06
2023-03-21T12:17:59.327Z,101179.09
2023-03-21T12:20:48.295Z,101162.50
2023-03-21T12:23:28.448Z,101161.75
2023-03-21T12:26:07.162Z,101155.69
2023-03-21T12:28:48.110Z,101161.31
2023-03-21T12:31:25.125Z,101159.78
2023-03-21T12:34:03.636Z,101161.63
2023-03-21T12:36:48.002Z,101149.00
2023-03-21T12:39:28.041Z,101149.94
2023-03-21T12:42:07.801Z,101149.94
2023-03-21T12:44:41.738Z,101140.19
2023-03-21T12:47:14.596Z,101148.56
2023-03-21T12:49:48.015Z,101132.59
2023-03-21T12:52:19.830Z,101136.81
2023-03-21T12:54:51.948Z,101122.69
2023-03-21T12:57:23.829Z,101124.94
2023-03-21T13:00:00.100Z,101131.38
2023-03-21T13:02:32.640Z,101130.94
2023-03-21T13:05:08.242Z,101130.16
2023-03-21T13:07:40.869Z,101128.41
2023-03-21T13:10:15.687Z,101117.72
2023-03-21T13:12:52.105Z,101117.09
2023-03-21T13:15:52.726Z,101115.56
2023-03-21T13:18:31.572Z,101111.34
2023-03-21T13:21:02.960Z,101110.94
2023-03-21T13:23:37.175Z,101102.13
2023-03-21T13:26:09.150Z,101092.50
2023-03-21T13:28:39.841Z,101086.91
2023-03-21T13:31:20.626Z,101088.91
2023-03-21T13:33:50.672Z,101099.59
2023-03-21T13:36:25.671Z,101085.31
2023-03-21T13:38:56.242Z,101092.50
2023-03-21T13:41:31.148Z,101094.94
2023-03-21T13:44:10.324Z,101091.38
2023-03-21T13:46:53.950Z,101083.03
2023-03-21T13:49:28.943Z,101087.38
2023-03-21T13:51:58.381Z,101093.91
2023-03-21T13:54:31.549Z,101080.47
2023-03-21T13:57:01.617Z,101074.34
2023-03-21T13:59:48.935Z,101069.13
2023-03-21T14:02:30.456Z,101072.91
2023-03-21T14:05:06.845Z,101072.78
2023-03-21T14:07:38.142Z,101061.34
2023-03-21T14:10:10.633Z,101059.19
2023-03-21T14:12:41.973Z,101059.56
2023-03-21T14:15:18.836Z,101059.56
2023-03-21T14:17:56.233Z,101062.94
2023-03-21T14:20:26.797Z,101053.19
2023-03-21T14:22:55.080Z,101064.16
2023-03-21T14:25:29.231Z,101062.13
2023-03-21T14:28:03.838Z,101056.25
2023-03-21T14:30:35.458Z,101059.56
2023-03-21T14:33:09.009Z,101059.09
2023-03-21T14:35:37.383Z,101037.06
2023-03-21T14:38:07.342Z,101042.94
2023-03-21T14:40:35.617Z,101037.38
2023-03-21T14:43:06.869Z,101035.09
2023-03-21T14:45:37.273Z,101036.03
2023-03-21T14:48:09.488Z,101034.50
2023-03-21T14:50:41.913Z,101031.50
2023-03-21T14:53:16.669Z,101036.19
2023-03-21T14:55:47.178Z,101044.59
2023-03-21T14:58:19.182Z,101043.25
2023-03-21T15:00:50.776Z,101041.72
2023-03-21T15:03:23.521Z,101042.50
2023-03-21T15:05:51.470Z,101038.06
2023-03-21T15:08:21.621Z,101034.09
2023-03-21T15:11:06.160Z,101044.28
2023-03-21T15:13:37.348Z,101036.66
2023-03-21T15:16:06.310Z,101029.66
2023-03-21T15:18:39.117Z,101028.91
2023-03-21T15:21:11.456Z,101031.94
2023-03-21T15:23:42.744Z,101017.00
2023-03-21T15:26:16.677Z,101010.78
2023-03-21T15:28:47.200Z,101006.53
2023-03-21T15:31:18.468Z,100999.53
2023-03-21T15:33:48.969Z,101009.63
2023-03-21T15:36:20.874Z,101008.09
2023-03-21T15:38:49.726Z,100999.13
2023-03-21T15:41:28.258Z,101007.34
2023-03-21T15:44:03.689Z,101012.09
2023-03-21T15:46:41.402Z,101014.06
2023-03-21T15:49:18.998Z,101012.44
2023-03-21T15:51:51.960Z,101025.81
2023-03-21T15:54:24.609Z,101016.06
2023-03-21T15:56:55.921Z,101025.34
2023-03-21T15:59:28.042Z,101028.06
2023-03-21T16:01:55.957Z,101029.31
2023-03-21T16:04:26.190Z,101042.41
2023-03-21T16:06:59.037Z,101039.09
2023-03-21T16:09:27.313Z,101052.78
2023-03-21T16:11:56.820Z,101045.03
2023-03-21T16:14:27.798Z,101054.19
2023-03-21T16:16:56.239Z,101051.16
2023-03-21T16:19:27.658Z,101048.56
2023-03-21T16:21:55.556Z,101051.00
2023-03-21T16:24:23.369Z,101058.16
2023-03-21T16:26:53.377Z,101049.84
2023-03-21T16:29:21.214Z,101066.09
2023-03-21T16:31:49.760Z,101067.38
2023-03-21T16:34:17.573Z,101065.38
2023-03-21T16:36:47.641Z,101063.59
2023-03-21T16:39:19.720Z,101071.38
2023-03-21T16:41:48.259Z,101051.03
2023-03-21T16:44:16.446Z,101047.88
2023-03-21T16:46:44.545Z,101047.44
2023-03-21T16:49:20.336Z,101041.66
2023-03-21T16:51:49.453Z,101038.94
2023-03-21T16:54:17.329Z,101035.28
2023-03-21T16:56:48.636Z,101027.25
2023-03-21T16:59:16.720Z,101035.88
2023-03-21T17:01:45.878Z,101020.25
2023-03-21T17:04:13.841Z,101007.81
2023-03-21T17:06:45.581Z,101012.84
2023-03-21T17:09:16.307Z,101023.75
2023-03-21T17:11:44.553Z,101025.56
2023-03-21T17:14:14.244Z,101032.53
2023-03-21T17:16:43.062Z,101027.06
2023-03-21T17:19:15.509Z,101033.78
2023-03-21T17:21:43.392Z,101037.72
2023-03-21T17:24:11.194Z,101033.16
2023-03-21T17:26:41.011Z,101032.41
2023-03-21T17:29:08.843Z,101031.78
2023-03-21T17:31:38.556Z,101036.19
2023-03-21T17:34:06.532Z,101031.66
2023-03-21T17:36:36.512Z,101026.78
2023-03-21T17:39:06.842Z,101030.09
2023-03-21T17:41:34.881Z,101041.63
2023-03-21T17:44:04.017Z,101028.91
2023-03-21T17:46:36.537Z,101027.09
2023-03-21T17:49:05.705Z,101035.72
2023-03-21T17:51:33.775Z,101025.22
2023-03-21T17:54:01.662Z,101028.88
2023-03-21T17:56:32.094Z,101036.75
2023-03-21T17:59:01.122Z,101029.78
2023-03-21T18:01:31.610Z,101028.25
2023-03-21T18:04:02.097Z,101027.06
2023-03-21T18:06:30.028Z,101024.78
2023-03-21T18:08:59.626Z,101022.03
2023-03-21T18:11:28.608Z,101014.78
2023-03-21T18:14:06.814Z,101017.63
2023-03-21T18:16:43.910Z,101007.94
2023-03-21T18:19:12.776Z,101005.66
2023-03-21T18:21:44.903Z,101012.34
2023-03-21T18:24:13.116Z,101004.59
2023-03-21T18:26:41.161Z,101004.59
2023-03-21T18:30:13.229Z,101003.09
2023-03-21T18:32:06.899Z,101005.50
2023-03-21T18:34:37.078Z,101009.91
2023-03-21T18:37:07.613Z,101015.47
2023-03-21T18:39:36.229Z,101015.47
2023-03-21T18:42:04.705Z,101011.69
2023-03-21T18:44:37.291Z,101013.66
2023-03-21T18:47:07.502Z,101010.94
2023-03-21T18:52:23.539Z,101007.88
2023-03-21T18:54:51.323Z,101007.88
2023-03-21T18:57:37.368Z,101008.63
2023-03-21T19:00:12.380Z,101016.41
2023-03-21T19:02:46.775Z,101017.47
2023-03-21T19:05:16.920Z,101010.34
2023-03-21T19:07:44.883Z,101012.47
2023-03-21T19:10:18.003Z,101018.53
2023-03-21T19:12:46.555Z,101016.88
2023-03-21T19:15:17.718Z,101016.44
2023-03-21T19:18:26.480Z,101016.13
2023-03-21T19:20:34.893Z,101013.84
2023-03-21T19:23:03.218Z,101016.56
2023-03-21T19:25:31.024Z,101014.59
2023-03-21T19:27:58.813Z,101020.06
2023-03-21T19:30:27.819Z,101010.34
2023-03-21T19:32:57.104Z,101015.50
2023-03-21T19:35:26.053Z,101019.47
2023-03-21T19:37:53.905Z,101009.72
2023-03-21T19:40:22.037Z,100998.50
2023-03-21T19:42:49.895Z,101003.66
2023-03-21T19:45:17.846Z,101008.06
2023-03-21T19:47:46.237Z,101010.94
2023-03-21T19:53:03.626Z,101014.69
2023-03-21T19:55:31.451Z,101013.13
2023-03-21T19:57:59.494Z,101012.38
2023-03-21T20:00:27.309Z,101008.47
2023-03-21T20:02:55.143Z,101006.19
2023-03-21T20:05:25.620Z,101010.13
2023-03-21T20:07:55.365Z,101005.88
2023-03-21T20:10:23.731Z,101004.81
2023-03-21T20:12:51.684Z,100996.31
2023-03-21T20:15:21.867Z,100997.06
2023-03-21T20:17:51.327Z,100997.53
2023-03-21T20:20:19.911Z,100989.03
2023-03-21T20:23:11.002Z,100987.50
2023-03-21T20:25:43.106Z,100984.91
2023-03-21T20:28:16.477Z,100989.31
2023-03-21T20:30:53.296Z,100984.75
2023-03-21T20:33:21.584Z,100985.63
2023-03-21T20:38:40.750Z,100969.56
2023-03-21T20:41:08.814Z,100970.31
2023-03-21T20:44:28.247Z,100968.06
2023-03-21T20:46:24.664Z,100974.38
2023-03-21T20:48:52.511Z,100971.06
2023-03-21T20:54:10.980Z,100972.25
2023-03-21T20:56:38.900Z,100964.53
2023-03-21T20:59:17.439Z,100957.97
2023-03-21T21:01:48.582Z,100962.38
2023-03-21T21:04:19.904Z,100963.16
2023-03-21T21:06:48.157Z,100957.69
2023-03-21T21:09:18.093Z,100954.66
2023-03-21T21:14:35.501Z,100934.78
2023-03-21T21:17:22.463Z,100939.50
2023-03-21T21:19:51.458Z,100936.75
2023-03-21T21:22:19.737Z,100940.72
2023-03-21T21:24:48.925Z,100943.13
2023-03-21T21:27:16.726Z,100936.16
2023-03-21T21:29:46.657Z,100928.88
2023-03-21T21:32:16.711Z,100938.25
2023-03-21T21:34:44.653Z,100925.97
2023-03-21T21:37:12.497Z,100922.19
2023-03-21T21:39:42.009Z,100924.28
2023-03-21T21:42:11.164Z,100923.22
2023-03-21T21:44:44.025Z,100922.91
2023-03-21T21:47:12.132Z,100924.56
2023-03-21T21:49:40.070Z,100920.28
2023-03-21T21:52:07.930Z,100920.00
2023-03-21T21:54:36.181Z,100917.56
2023-03-21T21:57:04.124Z,100918.66
2023-03-21T21:59:33.901Z,100923.66
2023-03-21T22:02:01.756Z,100918.06
2023-03-21T22:04:30.126Z,100920.97
2023-03-21T22:06:58.078Z,100921.28
2023-03-21T22:09:26.014Z,100917.81
2023-03-21T22:11:53.813Z,100912.78
2023-03-21T22:14:21.608Z,100921.91
2023-03-21T22:16:50.771Z,100912.50
2023-03-21T22:19:19.076Z,100907.38
2023-03-21T22:21:46.898Z,100912.06
2023-03-21T22:24:14.739Z,100907.38
2023-03-21T22:26:42.683Z,100904.78
2023-03-21T22:29:10.581Z,100906.63
2023-03-21T22:31:41.762Z,100900.09
2023-03-21T22:34:10.988Z,100906.44
2023-03-21T22:36:38.794Z,100905.25
2023-03-21T22:39:06.614Z,100907.97
2023-03-21T22:41:34.376Z,100901.13
2023-03-21T22:44:02.175Z,100905.50
2023-03-21T22:46:30.078Z,100900.50
2023-03-21T22:48:57.900Z,100905.19
2023-03-21T22:51:27.164Z,100900.19
2023-03-21T22:53:54.949Z,100897.16
2023-03-21T22:56:22.787Z,100895.19
2023-03-21T22:58:50.598Z,100877.31
2023-03-21T23:01:18.387Z,100884.88
2023-03-21T23:03:46.227Z,100893.81
2023-03-21T23:06:14.055Z,100891.53
2023-03-21T23:08:43.203Z,100888.19
2023-03-21T23:11:11.726Z,100891.50
2023-03-21T23:13:41.236Z,100890.09
2023-03-21T23:16:09.947Z,100890.88
2023-03-21T23:18:38.540Z,100888.59
2023-03-21T23:21:13.133Z,100889.78
2023-03-21T23:23:43.792Z,100884.03
2023-03-21T23:26:12.326Z,100895.38
2023-03-21T23:28:40.103Z,100895.06
2023-03-21T23:31:09.390Z,100896.41
2023-03-21T23:33:37.333Z,100889.00
2023-03-21T23:36:06.167Z,100895.66
2023-03-21T23:38:34.617Z,100893.69
2023-03-21T23:41:07.657Z,100884.75
2023-03-21T23:43:35.793Z,100893.38
2023-03-21T23:46:04.125Z,100890.22
2023-03-21T23:48:32.187Z,100887.94
2023-03-21T23:51:00.569Z,100884.44
2023-03-21T23:53:28.631Z,100883.38
2023-03-21T23:55:58.376Z,100883.50
2023-03-21T23:58:29.616Z,100896.81
